Malaviya Twenty — AUEV — position and weather

sailwx.info

Track history (hours):
 
Tides and Currents Weather Stations Pressure Air Temp Water Temp Dewpoint Dewpoint Depression Visibility Wind Speed Wind Dir Waves Ship Positions

Malaviya Twenty

Last reported at 2016-Jun-10 13:11 UTC. Time now 2016-Jul-01 02:44 UTC.
Position N 52°36' E 001°43'.
Warning: this ship's position is 20 days out of date.

Length 72 m; draft 4.2 m.

Type: Ship. MMSI: 419504000.

Date/timePositionNaut miles runAvg speedWind from/ knotsBaromVisibWave heightAir tempDewpointWater temp
2016-Jun-10 13:11N 52°36' E 001°43'0 0.0
2016-Jun-10 12:32N 52°36' E 001°44'0 0.0
2016-Jun-10 11:26N 52°36' E 001°43'0 0.0
2016-Jun-10 05:26N 52°36' E 001°43'0 0.0
2016-Jun-10 04:32N 52°36' E 001°43'0 0.0
2016-Jun-10 03:11N 52°36' E 001°43'0 0.0
2016-Jun-10 02:32N 52°36' E 001°44'0 0.0
2016-Jun-10 01:29N 52°36' E 001°43'0 0.0
2016-Jun-10 00:32N 52°36' E 001°43'0 0.0
2016-Jun-09 23:26N 52°36' E 001°43'0 0.0
2016-Jun-09 22:32N 52°36' E 001°43'0 0.0
2016-Jun-09 21:32N 52°36' E 001°44'0 0.0
2016-Jun-09 19:32N 52°36' E 001°44'0 0.0
2016-Jun-09 17:29N 52°36' E 001°44'0 0.0
2016-Jun-09 16:20N 52°36' E 001°43'0 0.0
2016-Jun-09 15:32N 52°36' E 001°43'0 0.0
2016-Jun-09 13:29N 52°36' E 001°43'1 0.0
2016-Jun-08 17:07N 52°35' E 001°44'0 0.0
2016-Jun-08 10:32N 52°35' E 001°44'0 0.0
2016-Jun-08 05:34N 52°35' E 001°44'2 1.4
2016-Jun-08 04:17N 52°37' E 001°46'5 7.1
2016-Jun-08 03:33N 52°42' E 001°46'7 7.5
2016-Jun-08 02:33N 52°48' E 001°41'8 7.9
2016-Jun-08 01:34N 52°55' E 001°34'9 8.9
2016-Jun-08 00:34N 53°04' E 001°31'1110.7
2016-Jun-07 23:33N 53°14' E 001°36'1211.2
2016-Jun-07 22:30N 53°26' E 001°37'1111.4
2016-Jun-07 21:32N 53°37' E 001°42'5410.7
2016-Jun-07 16:31N 54°25' E 002°23'4 4.3
2016-Jun-07 15:33N 54°27' E 002°29'1 1.0
2016-Jun-07 14:32N 54°26' E 002°28'2 1.6
2016-Jun-07 13:31N 54°26' E 002°25'5 0.4
2016-Jun-07 03:09N 54°23' E 002°30'4 1.9
2016-Jun-07 01:13N 54°26' E 002°31'3 0.6
2016-Jun-06 20:22N 54°26' E 002°36'1 1.1
2016-Jun-06 19:33N 54°27' E 002°35'6 0.4
2016-Jun-06 01:31N 54°22' E 002°28'2 2.0
2016-Jun-06 00:33N 54°23' E 002°31'2 2.0
2016-Jun-05 23:33N 54°24' E 002°33'2 1.7
2016-Jun-05 22:22N 54°26' E 002°34'2 1.8
2016-Jun-05 21:17N 54°28' E 002°32'0 0.2
2016-Jun-05 20:10N 54°28' E 002°32'1 0.5
2016-Jun-05 18:27N 54°28' E 002°33'2 1.5
2016-Jun-05 17:21N 54°26' E 002°31'2 1.7
2016-Jun-05 16:27N 54°25' E 002°30'1 1.1
2016-Jun-05 15:32N 54°24' E 002°29'1 0.8
2016-Jun-05 14:15N 54°25' E 002°30'1 1.1
2016-Jun-05 13:33N 54°26' E 002°31'1 1.1
2016-Jun-05 12:33N 54°26' E 002°33'2 1.4
2016-Jun-05 11:27N 54°25' E 002°32'2 2.0
2016-Jun-05 10:31N 54°24' E 002°29'3 3.0
2016-Jun-05 09:33N 54°27' E 002°27'1 0.9
2016-Jun-05 08:26N 54°28' E 002°28'1 1.0
2016-Jun-05 07:28N 54°27' E 002°29'2 1.3
2016-Jun-05 06:09N 54°27' E 002°32'1 0.9
2016-Jun-05 05:30N 54°27' E 002°31'1 1.0
2016-Jun-05 04:33N 54°26' E 002°32'1 1.3
2016-Jun-05 03:31N 54°25' E 002°32'0 0.3
2016-Jun-05 02:34N 54°25' E 002°32'1 1.3
2016-Jun-05 01:33N 54°24' E 002°32'3 3.0
2016-Jun-05 00:34N 54°27' E 002°31'2 2.3
2016-Jun-04 23:33N 54°29' E 002°31'2 2.1
2016-Jun-04 22:34N 54°27' E 002°31'2 2.3
2016-Jun-04 21:33N 54°24' E 002°31'1 1.3
2016-Jun-04 20:33N 54°25' E 002°33'1 1.0
2016-Jun-04 19:28N 54°26' E 002°32'0 0.5
2016-Jun-04 18:34N 54°26' E 002°31'62 3.4
2016-Jun-04 00:27N 53°31' E 001°40'1111.6
2016-Jun-03 23:30N 53°21' E 001°37'1111.5
2016-Jun-03 22:34N 53°10' E 001°34'1110.7
2016-Jun-03 21:33N 52°59' E 001°31'1010.4
2016-Jun-03 20:33N 52°50' E 001°39'9 8.7
2016-Jun-03 19:34N 52°43' E 001°47'7 7.5
2016-Jun-03 18:34N 52°35' E 001°45'1 1.1
2016-Jun-03 17:34N 52°35' E 001°44'0 0.0
2016-Jun-03 16:33N 52°35' E 001°44'0 0.0
2016-Jun-03 15:33N 52°35' E 001°44'0 0.0
2016-Jun-03 14:33N 52°35' E 001°44'0 0.0
2016-Jun-03 13:33N 52°35' E 001°44'0 0.0
2016-Jun-03 12:33N 52°35' E 001°44'0 0.0
2016-Jun-03 11:33N 52°35' E 001°44'1 0.6
2016-Jun-03 10:31N 52°36' E 001°44'0 0.0
2016-Jun-03 09:31N 52°36' E 001°44'0 0.0
2016-Jun-03 08:31N 52°36' E 001°44'0 0.0
2016-Jun-03 07:31N 52°36' E 001°44'0 0.0
2016-Jun-03 06:31N 52°36' E 001°44'0 0.0
2016-Jun-03 05:31N 52°36' E 001°44'0 0.0
2016-Jun-03 04:34N 52°36' E 001°44'0 0.0
2016-Jun-03 03:34N 52°36' E 001°44'0 0.0
2016-Jun-03 02:33N 52°36' E 001°44'0 0.0
2016-Jun-03 01:33N 52°36' E 001°44'0 0.0
2016-Jun-03 00:33N 52°36' E 001°44'0 0.0
2016-Jun-02 23:33N 52°36' E 001°44'0 0.0
2016-Jun-02 22:33N 52°36' E 001°44'0 0.0
2016-Jun-02 21:33N 52°36' E 001°44'0 0.0
2016-Jun-02 20:33N 52°36' E 001°44'0 0.0
2016-Jun-02 19:33N 52°36' E 001°44'0 0.0
2016-Jun-02 18:33N 52°36' E 001°44'0 0.0
2016-Jun-02 17:33N 52°36' E 001°44'0 0.0
2016-Jun-02 16:33N 52°36' E 001°44'0 0.0
2016-Jun-02 15:33N 52°36' E 001°44'0 0.0
2016-Jun-02 14:33N 52°36' E 001°44'0 0.0
2016-Jun-02 13:33N 52°36' E 001°44'0 0.0
2016-Jun-02 12:33N 52°36' E 001°44'0 0.0
2016-Jun-02 11:30N 52°36' E 001°44'0 0.0
2016-Jun-02 10:33N 52°36' E 001°44'0 0.0
2016-Jun-02 09:33N 52°36' E 001°44'0 0.0
2016-Jun-02 08:33N 52°36' E 001°44'0 0.0
2016-Jun-02 07:33N 52°36' E 001°44'0 0.0
2016-Jun-02 06:33N 52°36' E 001°44'0 0.0
2016-Jun-02 05:33N 52°36' E 001°44'0 0.0
2016-Jun-02 04:33N 52°36' E 001°44'0 0.0
2016-Jun-02 03:33N 52°36' E 001°44'0 0.0
2016-Jun-02 02:33N 52°36' E 001°44'0 0.0
2016-Jun-02 01:33N 52°36' E 001°44'0 0.0
2016-Jun-02 00:33N 52°36' E 001°44'0 0.0
2016-Jun-01 23:33N 52°36' E 001°44'0 0.0
2016-Jun-01 22:33N 52°36' E 001°44'0 0.0
2016-Jun-01 21:33N 52°36' E 001°44'0 0.0
2016-Jun-01 20:33N 52°36' E 001°44'0 0.0
2016-Jun-01 19:33N 52°36' E 001°44'0 0.0
2016-Jun-01 18:33N 52°36' E 001°44'0 0.0
2016-Jun-01 17:33N 52°36' E 001°44'0 0.0
2016-Jun-01 16:33N 52°36' E 001°44'0 0.0
2016-Jun-01 15:32N 52°36' E 001°44'0 0.0
2016-Jun-01 14:32N 52°36' E 001°44'0 0.0
2016-Jun-01 13:32N 52°36' E 001°44'0 0.0
2016-Jun-01 12:32N 52°36' E 001°44'0 0.0
2016-Jun-01 11:32N 52°36' E 001°44'0 0.0
2016-Jun-01 10:32N 52°36' E 001°44'0 0.0
2016-Jun-01 09:32N 52°36' E 001°44'0 0.0
2016-Jun-01 08:32N 52°36' E 001°44'0 0.0
2016-Jun-01 07:32N 52°36' E 001°44'0 0.0
2016-Jun-01 06:32N 52°36' E 001°44'0 0.0
2016-Jun-01 05:32N 52°36' E 001°44'0 0.0
2016-Jun-01 04:32N 52°36' E 001°44'0 0.0
2016-Jun-01 03:32N 52°36' E 001°44'0 0.0
2016-Jun-01 02:32N 52°36' E 001°44'0 0.0
2016-Jun-01 01:32N 52°36' E 001°44'0 0.0
2016-Jun-01 00:32N 52°36' E 001°44'0 0.0
2016-May-31 23:32N 52°36' E 001°44'0 0.0
2016-May-31 22:32N 52°36' E 001°44'0 0.0
2016-May-31 21:32N 52°36' E 001°44'0 0.0
2016-May-31 20:32N 52°36' E 001°44'0 0.0
2016-May-31 19:32N 52°36' E 001°44'0 0.0
2016-May-31 18:32N 52°36' E 001°44'0 0.0
2016-May-31 17:32N 52°36' E 001°44'0 0.0
2016-May-31 16:32N 52°36' E 001°44'0 0.0
2016-May-31 15:29N 52°36' E 001°44'0 0.0
2016-May-31 14:29N 52°36' E 001°44'0 0.0
2016-May-31 13:32N 52°36' E 001°44'  
Track history (hours):
 
Tides and Currents Weather Stations Pressure Air Temp Water Temp Dewpoint Dewpoint Depression Visibility Wind Speed Wind Dir Waves Ship Positions

Malaviya Twenty

Last reported at 2016-Jun-10 13:11 UTC. Time now 2016-Jul-01 02:44 UTC.
Position N 52°36' E 001°43'.
Warning: this ship's position is 20 days out of date.

Length 72 m; draft 4.2 m.

Type: Ship. MMSI: 419504000.

Date/timePositionNaut miles runAvg speedWind from/ knotsBaromVisibWave heightAir tempDewpointWater temp
2016-Jun-10 13:11N 52°36' E 001°43'0 0.0
2016-Jun-10 12:32N 52°36' E 001°44'0 0.0
2016-Jun-10 11:26N 52°36' E 001°43'0 0.0
2016-Jun-10 05:26N 52°36' E 001°43'0 0.0
2016-Jun-10 04:32N 52°36' E 001°43'0 0.0
2016-Jun-10 03:11N 52°36' E 001°43'0 0.0
2016-Jun-10 02:32N 52°36' E 001°44'0 0.0
2016-Jun-10 01:29N 52°36' E 001°43'0 0.0
2016-Jun-10 00:32N 52°36' E 001°43'0 0.0
2016-Jun-09 23:26N 52°36' E 001°43'0 0.0
2016-Jun-09 22:32N 52°36' E 001°43'0 0.0
2016-Jun-09 21:32N 52°36' E 001°44'0 0.0
2016-Jun-09 19:32N 52°36' E 001°44'0 0.0
2016-Jun-09 17:29N 52°36' E 001°44'0 0.0
2016-Jun-09 16:20N 52°36' E 001°43'0 0.0
2016-Jun-09 15:32N 52°36' E 001°43'0 0.0
2016-Jun-09 13:29N 52°36' E 001°43'1 0.0
2016-Jun-08 17:07N 52°35' E 001°44'0 0.0
2016-Jun-08 10:32N 52°35' E 001°44'0 0.0
2016-Jun-08 05:34N 52°35' E 001°44'2 1.4
2016-Jun-08 04:17N 52°37' E 001°46'5 7.1
2016-Jun-08 03:33N 52°42' E 001°46'7 7.5
2016-Jun-08 02:33N 52°48' E 001°41'8 7.9
2016-Jun-08 01:34N 52°55' E 001°34'9 8.9
2016-Jun-08 00:34N 53°04' E 001°31'1110.7
2016-Jun-07 23:33N 53°14' E 001°36'1211.2
2016-Jun-07 22:30N 53°26' E 001°37'1111.4
2016-Jun-07 21:32N 53°37' E 001°42'5410.7
2016-Jun-07 16:31N 54°25' E 002°23'4 4.3
2016-Jun-07 15:33N 54°27' E 002°29'1 1.0
2016-Jun-07 14:32N 54°26' E 002°28'2 1.6
2016-Jun-07 13:31N 54°26' E 002°25'5 0.4
2016-Jun-07 03:09N 54°23' E 002°30'4 1.9
2016-Jun-07 01:13N 54°26' E 002°31'3 0.6
2016-Jun-06 20:22N 54°26' E 002°36'1 1.1
2016-Jun-06 19:33N 54°27' E 002°35'6 0.4
2016-Jun-06 01:31N 54°22' E 002°28'2 2.0
2016-Jun-06 00:33N 54°23' E 002°31'2 2.0
2016-Jun-05 23:33N 54°24' E 002°33'2 1.7
2016-Jun-05 22:22N 54°26' E 002°34'2 1.8
2016-Jun-05 21:17N 54°28' E 002°32'0 0.2
2016-Jun-05 20:10N 54°28' E 002°32'1 0.5
2016-Jun-05 18:27N 54°28' E 002°33'2 1.5
2016-Jun-05 17:21N 54°26' E 002°31'2 1.7
2016-Jun-05 16:27N 54°25' E 002°30'1 1.1
2016-Jun-05 15:32N 54°24' E 002°29'1 0.8
2016-Jun-05 14:15N 54°25' E 002°30'1 1.1
2016-Jun-05 13:33N 54°26' E 002°31'1 1.1
2016-Jun-05 12:33N 54°26' E 002°33'2 1.4
2016-Jun-05 11:27N 54°25' E 002°32'2 2.0
2016-Jun-05 10:31N 54°24' E 002°29'3 3.0
2016-Jun-05 09:33N 54°27' E 002°27'1 0.9
2016-Jun-05 08:26N 54°28' E 002°28'1 1.0
2016-Jun-05 07:28N 54°27' E 002°29'2 1.3
2016-Jun-05 06:09N 54°27' E 002°32'1 0.9
2016-Jun-05 05:30N 54°27' E 002°31'1 1.0
2016-Jun-05 04:33N 54°26' E 002°32'1 1.3
2016-Jun-05 03:31N 54°25' E 002°32'0 0.3
2016-Jun-05 02:34N 54°25' E 002°32'1 1.3
2016-Jun-05 01:33N 54°24' E 002°32'3 3.0
2016-Jun-05 00:34N 54°27' E 002°31'2 2.3
2016-Jun-04 23:33N 54°29' E 002°31'2 2.1
2016-Jun-04 22:34N 54°27' E 002°31'2 2.3
2016-Jun-04 21:33N 54°24' E 002°31'1 1.3
2016-Jun-04 20:33N 54°25' E 002°33'1 1.0
2016-Jun-04 19:28N 54°26' E 002°32'0 0.5
2016-Jun-04 18:34N 54°26' E 002°31'62 3.4
2016-Jun-04 00:27N 53°31' E 001°40'1111.6
2016-Jun-03 23:30N 53°21' E 001°37'1111.5
2016-Jun-03 22:34N 53°10' E 001°34'1110.7
2016-Jun-03 21:33N 52°59' E 001°31'1010.4
2016-Jun-03 20:33N 52°50' E 001°39'9 8.7
2016-Jun-03 19:34N 52°43' E 001°47'7 7.5
2016-Jun-03 18:34N 52°35' E 001°45'1 1.1
2016-Jun-03 17:34N 52°35' E 001°44'0 0.0
2016-Jun-03 16:33N 52°35' E 001°44'0 0.0
2016-Jun-03 15:33N 52°35' E 001°44'0 0.0
2016-Jun-03 14:33N 52°35' E 001°44'0 0.0
2016-Jun-03 13:33N 52°35' E 001°44'0 0.0
2016-Jun-03 12:33N 52°35' E 001°44'0 0.0
2016-Jun-03 11:33N 52°35' E 001°44'1 0.6
2016-Jun-03 10:31N 52°36' E 001°44'0 0.0
2016-Jun-03 09:31N 52°36' E 001°44'0 0.0
2016-Jun-03 08:31N 52°36' E 001°44'0 0.0
2016-Jun-03 07:31N 52°36' E 001°44'0 0.0
2016-Jun-03 06:31N 52°36' E 001°44'0 0.0
2016-Jun-03 05:31N 52°36' E 001°44'0 0.0
2016-Jun-03 04:34N 52°36' E 001°44'0 0.0
2016-Jun-03 03:34N 52°36' E 001°44'0 0.0
2016-Jun-03 02:33N 52°36' E 001°44'0 0.0
2016-Jun-03 01:33N 52°36' E 001°44'0 0.0
2016-Jun-03 00:33N 52°36' E 001°44'0 0.0
2016-Jun-02 23:33N 52°36' E 001°44'0 0.0
2016-Jun-02 22:33N 52°36' E 001°44'0 0.0
2016-Jun-02 21:33N 52°36' E 001°44'0 0.0
2016-Jun-02 20:33N 52°36' E 001°44'0 0.0
2016-Jun-02 19:33N 52°36' E 001°44'0 0.0
2016-Jun-02 18:33N 52°36' E 001°44'0 0.0
2016-Jun-02 17:33N 52°36' E 001°44'0 0.0
2016-Jun-02 16:33N 52°36' E 001°44'0 0.0
2016-Jun-02 15:33N 52°36' E 001°44'0 0.0
2016-Jun-02 14:33N 52°36' E 001°44'0 0.0
2016-Jun-02 13:33N 52°36' E 001°44'0 0.0
2016-Jun-02 12:33N 52°36' E 001°44'0 0.0
2016-Jun-02 11:30N 52°36' E 001°44'0 0.0
2016-Jun-02 10:33N 52°36' E 001°44'0 0.0
2016-Jun-02 09:33N 52°36' E 001°44'0 0.0
2016-Jun-02 08:33N 52°36' E 001°44'0 0.0
2016-Jun-02 07:33N 52°36' E 001°44'0 0.0
2016-Jun-02 06:33N 52°36' E 001°44'0 0.0
2016-Jun-02 05:33N 52°36' E 001°44'0 0.0
2016-Jun-02 04:33N 52°36' E 001°44'0 0.0
2016-Jun-02 03:33N 52°36' E 001°44'0 0.0
2016-Jun-02 02:33N 52°36' E 001°44'0 0.0
2016-Jun-02 01:33N 52°36' E 001°44'0 0.0
2016-Jun-02 00:33N 52°36' E 001°44'0 0.0
2016-Jun-01 23:33N 52°36' E 001°44'0 0.0
2016-Jun-01 22:33N 52°36' E 001°44'0 0.0
2016-Jun-01 21:33N 52°36' E 001°44'0 0.0
2016-Jun-01 20:33N 52°36' E 001°44'0 0.0
2016-Jun-01 19:33N 52°36' E 001°44'0 0.0
2016-Jun-01 18:33N 52°36' E 001°44'0 0.0
2016-Jun-01 17:33N 52°36' E 001°44'0 0.0
2016-Jun-01 16:33N 52°36' E 001°44'0 0.0
2016-Jun-01 15:32N 52°36' E 001°44'0 0.0
2016-Jun-01 14:32N 52°36' E 001°44'0 0.0
2016-Jun-01 13:32N 52°36' E 001°44'0 0.0
2016-Jun-01 12:32N 52°36' E 001°44'0 0.0
2016-Jun-01 11:32N 52°36' E 001°44'0 0.0
2016-Jun-01 10:32N 52°36' E 001°44'0 0.0
2016-Jun-01 09:32N 52°36' E 001°44'0 0.0
2016-Jun-01 08:32N 52°36' E 001°44'0 0.0
2016-Jun-01 07:32N 52°36' E 001°44'0 0.0
2016-Jun-01 06:32N 52°36' E 001°44'0 0.0
2016-Jun-01 05:32N 52°36' E 001°44'0 0.0
2016-Jun-01 04:32N 52°36' E 001°44'0 0.0
2016-Jun-01 03:32N 52°36' E 001°44'0 0.0
2016-Jun-01 02:32N 52°36' E 001°44'0 0.0
2016-Jun-01 01:32N 52°36' E 001°44'0 0.0
2016-Jun-01 00:32N 52°36' E 001°44'0 0.0
2016-May-31 23:32N 52°36' E 001°44'0 0.0
2016-May-31 22:32N 52°36' E 001°44'0 0.0
2016-May-31 21:32N 52°36' E 001°44'0 0.0
2016-May-31 20:32N 52°36' E 001°44'0 0.0
2016-May-31 19:32N 52°36' E 001°44'0 0.0
2016-May-31 18:32N 52°36' E 001°44'0 0.0
2016-May-31 17:32N 52°36' E 001°44'0 0.0
2016-May-31 16:32N 52°36' E 001°44'0 0.0
2016-May-31 15:29N 52°36' E 001°44'0 0.0
2016-May-31 14:29N 52°36' E 001°44'0 0.0
2016-May-31 13:32N 52°36' E 001°44'  

Dump ship's entire track history